Time;durP1;ratioP1;P1;durP2;ratioP2;P2;SDS_P1;SDS_P2;PMS_P1;PMS_P2;Temp;Humidity;BMP_temperature;BMP_pressure;BME280_temperature;BME280_humidity;BME280_pressure;Samples;Min_cycle;Max_cycle;Signal;HPM_P1;HPM_P2
2023/06/08 00:01:31;;;;;;;8.82;3.95;;;17.00;96.20;;;;;;5074547;28;20061;-80
2023/06/08 00:03:56;;;;;;;7.20;4.10;;;16.90;96.30;;;;;;5072512;28;20852;-81
2023/06/08 00:06:23;;;;;;;8.73;3.65;;;16.90;96.40;;;;;;5073349;28;20028;-81
2023/06/08 00:08:49;;;;;;;10.93;4.38;;;16.80;96.40;;;;;;5072000;28;20038;-81
2023/06/08 00:11:14;;;;;;;8.70;3.90;;;16.80;96.50;;;;;;5074274;28;20020;-82
2023/06/08 00:13:40;;;;;;;9.18;4.18;;;16.80;96.50;;;;;;5062479;28;20774;-82
2023/06/08 00:16:05;;;;;;;7.35;3.83;;;16.80;96.50;;;;;;5058339;28;20063;-82
2023/06/08 00:18:31;;;;;;;10.02;4.10;;;16.80;96.50;;;;;;5057467;28;20036;-82
2023/06/08 00:20:58;;;;;;;8.45;4.05;;;16.80;96.50;;;;;;5061131;28;20116;-81
2023/06/08 00:23:24;;;;;;;6.97;3.92;;;16.90;96.60;;;;;;5058885;28;20090;-82
2023/06/08 00:25:49;;;;;;;6.35;3.33;;;16.90;96.50;;;;;;5059496;28;20069;-82
2023/06/08 00:28:15;;;;;;;7.00;3.55;;;16.80;96.60;;;;;;5064587;28;20789;-82
2023/06/08 00:30:41;;;;;;;7.15;3.70;;;16.80;96.60;;;;;;5072116;28;20020;-83
2023/06/08 00:33:06;;;;;;;9.60;4.13;;;16.80;96.60;;;;;;5059796;28;20402;-82
2023/06/08 00:35:32;;;;;;;6.72;4.18;;;16.70;96.70;;;;;;5072163;28;20486;-83
2023/06/08 00:37:58;;;;;;;8.15;3.80;;;16.70;96.80;;;;;;5062227;28;20339;-83
2023/06/08 00:40:23;;;;;;;8.15;3.80;;;16.70;96.90;;;;;;5074394;28;20060;-83
2023/06/08 00:42:49;;;;;;;7.32;3.83;;;16.60;96.90;;;;;;5063604;28;22351;-83
2023/06/08 00:45:15;;;;;;;10.52;4.78;;;16.60;96.90;;;;;;5072292;28;20101;-83
2023/06/08 00:47:41;;;;;;;7.88;4.22;;;16.50;97.00;;;;;;5063607;28;20481;-82
2023/06/08 00:50:08;;;;;;;8.50;4.38;;;16.40;97.10;;;;;;5072398;28;20044;-82
2023/06/08 00:52:34;;;;;;;7.57;3.80;;;16.30;97.20;;;;;;5072706;28;20043;-83
2023/06/08 00:55:01;;;;;;;6.95;3.80;;;16.20;97.30;;;;;;5074604;28;20531;-83
2023/06/08 00:57:28;;;;;;;7.32;3.78;;;16.20;97.30;;;;;;5062024;28;20119;-82
2023/06/08 00:59:55;;;;;;;6.97;3.78;;;16.20;97.30;;;;;;5071027;28;20542;-82
2023/06/08 01:02:23;;;;;;;7.05;3.90;;;16.20;97.30;;;;;;5071830;28;20027;-82
2023/06/08 01:04:50;;;;;;;6.78;4.13;;;16.10;97.40;;;;;;5062606;28;20530;-83
2023/06/08 01:07:31;;;;;;;6.70;3.72;;;16.10;97.40;;;;;;5072581;28;20361;-82
2023/06/08 01:10:38;;;;;;;8.30;4.70;;;16.10;97.40;;;;;;5073357;28;20039;-83
2023/06/08 01:13:12;;;;;;;7.55;3.70;;;16.10;97.50;;;;;;5071749;28;20044;-83
2023/06/08 01:15:42;;;;;;;7.50;4.18;;;16.00;97.60;;;;;;5072496;28;20032;-83
2023/06/08 01:18:09;;;;;;;7.53;4.53;;;16.00;97.60;;;;;;5072080;28;20420;-82
2023/06/08 01:21:11;;;;;;;6.90;3.83;;;16.00;97.70;;;;;;5072346;28;20035;-83
2023/06/08 01:23:44;;;;;;;11.05;4.90;;;16.00;97.90;;;;;;5013752;28;20050;-82
2023/06/08 01:26:15;;;;;;;6.97;3.50;;;16.00;97.70;;;;;;5058824;28;20480;-83
2023/06/08 01:28:41;;;;;;;7.50;3.92;;;15.90;97.80;;;;;;5072544;28;20023;-81
2023/06/08 01:31:07;;;;;;;8.55;4.18;;;15.90;97.80;;;;;;5071824;28;20123;-82
2023/06/08 01:33:33;;;;;;;7.65;3.97;;;15.90;97.90;;;;;;5062384;28;20379;-83
2023/06/08 01:36:22;;;;;;;7.55;5.03;;;15.80;97.90;;;;;;5057153;28;20020;-83
2023/06/08 01:38:59;;;;;;;7.80;3.60;;;15.80;98.00;;;;;;5059450;28;20039;-81
2023/06/08 01:41:27;;;;;;;6.75;3.75;;;15.70;98.10;;;;;;5072611;28;20032;-81
2023/06/08 01:43:55;;;;;;;5.80;3.47;;;15.70;98.10;;;;;;5055811;28;20028;-81
2023/06/08 01:46:23;;;;;;;6.10;3.88;;;15.70;98.10;;;;;;5056420;28;20032;-81
2023/06/08 01:48:51;;;;;;;7.78;4.38;;;15.70;98.10;;;;;;5072061;28;20024;-81
2023/06/08 01:51:18;;;;;;;9.02;3.88;;;15.60;98.20;;;;;;5072141;28;20152;-81
2023/06/08 01:53:44;;;;;;;7.18;3.88;;;15.60;98.20;;;;;;5063155;28;20055;-81
2023/06/08 01:56:10;;;;;;;7.53;3.83;;;15.60;98.30;;;;;;5072913;28;20060;-81
2023/06/08 01:58:35;;;;;;;7.72;3.95;;;15.70;98.20;;;;;;5064808;28;20035;-84
2023/06/08 02:01:01;;;;;;;7.95;4.38;;;15.60;98.20;;;;;;5060393;28;20107;-82
2023/06/08 02:03:27;;;;;;;8.60;4.35;;;15.60;98.20;;;;;;5073107;28;20112;-81
2023/06/08 02:05:52;;;;;;;10.45;4.68;;;15.60;98.30;;;;;;5055763;28;20025;-82
2023/06/08 02:08:18;;;;;;;6.88;3.90;;;15.60;98.40;;;;;;5072762;28;20024;-82
2023/06/08 02:10:43;;;;;;;9.23;4.97;;;15.60;98.40;;;;;;5061531;28;20028;-81
2023/06/08 02:13:09;;;;;;;7.60;4.38;;;15.50;98.40;;;;;;5070868;28;20035;-81
2023/06/08 02:15:35;;;;;;;8.60;4.60;;;15.50;98.50;;;;;;5071807;28;20024;-81
2023/06/08 02:18:01;;;;;;;8.93;4.55;;;15.50;98.50;;;;;;5071351;28;20032;-82
2023/06/08 02:20:27;;;;;;;8.90;4.57;;;15.40;98.50;;;;;;5056780;28;20134;-82
2023/06/08 02:22:52;;;;;;;8.32;3.88;;;15.40;98.60;;;;;;5072709;28;20040;-81
2023/06/08 02:25:18;;;;;;;8.35;4.03;;;15.40;98.60;;;;;;5055985;28;20025;-81
2023/06/08 02:27:44;;;;;;;8.85;4.57;;;15.40;98.60;;;;;;5074010;28;20032;-82
2023/06/08 02:30:11;;;;;;;8.23;4.20;;;15.30;98.60;;;;;;5059791;28;20029;-82
2023/06/08 02:32:41;;;;;;;5.78;3.95;;;15.30;98.60;;;;;;5063599;28;20162;-82
2023/06/08 02:35:07;;;;;;;8.43;4.38;;;15.30;98.70;;;;;;5060681;28;20020;-82
2023/06/08 02:37:36;;;;;;;9.73;5.30;;;15.30;98.70;;;;;;5066124;28;20107;-81
2023/06/08 02:40:02;;;;;;;8.52;4.40;;;15.20;98.80;;;;;;5077063;28;20056;-81
2023/06/08 02:42:27;;;;;;;6.53;4.10;;;15.20;98.80;;;;;;5074537;28;20040;-81
2023/06/08 02:44:53;;;;;;;8.32;4.10;;;15.20;98.80;;;;;;5073450;28;20154;-81
2023/06/08 02:47:19;;;;;;;7.78;4.47;;;15.20;98.80;;;;;;5075285;28;20120;-81
2023/06/08 02:49:45;;;;;;;9.38;4.80;;;15.20;98.90;;;;;;5076575;28;20051;-82
2023/06/08 02:52:11;;;;;;;7.25;4.40;;;15.10;98.90;;;;;;5077612;28;20024;-83
2023/06/08 02:54:36;;;;;;;8.23;4.32;;;15.10;98.90;;;;;;5061478;28;20056;-82
2023/06/08 02:57:02;;;;;;;10.00;4.57;;;15.10;99.00;;;;;;5074954;28;20052;-82
2023/06/08 02:59:29;;;;;;;13.20;4.63;;;15.10;99.00;;;;;;5075438;28;20066;-83
2023/06/08 03:01:56;;;;;;;6.95;4.10;;;15.10;99.10;;;;;;5065989;28;20462;-82
2023/06/08 03:04:23;;;;;;;6.60;4.20;;;15.10;99.10;;;;;;5065442;28;20028;-82
2023/06/08 03:06:53;;;;;;;8.05;4.20;;;15.10;99.00;;;;;;5058800;28;20035;-82
2023/06/08 03:09:20;;;;;;;8.50;4.35;;;15.10;99.00;;;;;;5064989;28;20035;-82
2023/06/08 03:11:47;;;;;;;9.77;5.30;;;15.10;99.00;;;;;;5065328;28;20012;-82
2023/06/08 03:14:12;;;;;;;9.05;4.53;;;15.10;99.10;;;;;;5074623;28;20107;-82
2023/06/08 03:16:38;;;;;;;6.82;4.13;;;15.00;99.10;;;;;;5058952;28;20070;-83
2023/06/08 03:19:03;;;;;;;7.60;4.00;;;15.00;99.10;;;;;;5057565;28;20035;-82
2023/06/08 03:21:29;;;;;;;7.32;3.92;;;15.00;99.10;;;;;;5065000;28;20028;-83
2023/06/08 03:23:55;;;;;;;8.90;3.83;;;14.90;99.10;;;;;;5060265;28;20076;-82
2023/06/08 03:26:24;;;;;;;8.52;4.30;;;14.90;99.10;;;;;;5065249;28;20545;-82
2023/06/08 03:28:50;;;;;;;8.10;4.65;;;14.90;99.20;;;;;;5064135;28;20020;-82
2023/06/08 03:31:16;;;;;;;7.63;4.55;;;14.80;99.20;;;;;;5075643;28;20029;-82
2023/06/08 03:33:41;;;;;;;8.80;4.10;;;14.70;99.30;;;;;;5059256;28;20020;-83
2023/06/08 03:36:07;;;;;;;6.60;4.43;;;14.60;99.30;;;;;;5058629;28;20084;-82
2023/06/08 03:38:33;;;;;;;8.75;4.20;;;14.70;99.40;;;;;;5075767;28;20044;-82
2023/06/08 03:40:58;;;;;;;9.18;5.30;;;14.60;99.30;;;;;;5073040;28;20039;-83
2023/06/08 03:43:24;;;;;;;8.48;4.80;;;14.60;99.30;;;;;;5073956;28;20561;-83
2023/06/08 03:45:49;;;;;;;7.00;4.18;;;14.60;99.30;;;;;;5063466;28;20020;-82
2023/06/08 03:48:15;;;;;;;8.52;4.47;;;14.50;99.40;;;;;;5064521;28;20103;-82
2023/06/08 03:50:43;;;;;;;6.63;4.68;;;14.50;99.50;;;;;;5074122;28;20037;-83
2023/06/08 03:53:10;;;;;;;7.88;4.50;;;14.50;99.50;;;;;;5074031;28;20017;-83
2023/06/08 03:55:36;;;;;;;8.02;4.30;;;14.40;99.50;;;;;;5074809;28;20089;-82
2023/06/08 03:58:02;;;;;;;7.38;4.07;;;14.40;99.60;;;;;;5074066;28;20109;-83
2023/06/08 04:00:29;;;;;;;7.55;3.88;;;14.40;99.60;;;;;;5073619;28;20035;-83
2023/06/08 04:02:55;;;;;;;7.80;5.25;;;14.40;99.50;;;;;;5073361;28;20154;-82
2023/06/08 04:05:21;;;;;;;9.90;4.70;;;14.50;99.60;;;;;;5064594;28;20028;-83
2023/06/08 04:07:50;;;;;;;8.82;5.07;;;14.50;99.60;;;;;;5058644;28;20035;-82
2023/06/08 04:10:17;;;;;;;10.55;5.72;;;14.50;99.70;;;;;;5075513;28;20025;-83
2023/06/08 04:12:43;;;;;;;9.32;5.43;;;14.50;99.70;;;;;;5059246;28;20547;-82
2023/06/08 04:15:09;;;;;;;9.35;5.43;;;14.50;99.70;;;;;;5063032;28;20051;-82
2023/06/08 04:17:35;;;;;;;8.82;5.93;;;14.50;99.70;;;;;;5065932;28;20035;-82
2023/06/08 04:20:00;;;;;;;10.07;5.65;;;14.50;99.80;;;;;;5073356;28;20036;-83
2023/06/08 04:22:27;;;;;;;6.72;5.05;;;14.50;99.80;;;;;;5075285;28;20095;-81
2023/06/08 04:24:52;;;;;;;8.80;5.25;;;14.50;99.80;;;;;;5062665;28;20031;-81
2023/06/08 04:27:19;;;;;;;9.32;5.63;;;14.50;99.80;;;;;;5072231;28;20036;-82
2023/06/08 04:29:45;;;;;;;8.70;5.57;;;14.50;99.80;;;;;;5061609;28;20028;-82
2023/06/08 04:32:11;;;;;;;8.05;5.10;;;14.40;99.80;;;;;;5056089;28;20031;-82
2023/06/08 04:34:37;;;;;;;9.43;6.13;;;14.40;99.80;;;;;;5072717;28;20024;-82
2023/06/08 04:37:02;;;;;;;9.27;5.10;;;14.40;99.90;;;;;;5073265;28;20801;-82
2023/06/08 04:39:28;;;;;;;9.73;5.68;;;14.40;99.90;;;;;;5073732;28;20052;-82
2023/06/08 04:41:55;;;;;;;8.68;4.97;;;14.40;99.90;;;;;;5072320;28;20032;-83
2023/06/08 04:44:20;;;;;;;9.80;6.13;;;14.40;99.90;;;;;;5056449;28;20036;-83
2023/06/08 04:46:46;;;;;;;7.47;5.07;;;14.40;99.90;;;;;;5062502;28;20032;-83
2023/06/08 04:49:14;;;;;;;8.88;5.32;;;14.50;99.90;;;;;;5057008;28;20028;-82
2023/06/08 04:51:44;;;;;;;8.82;5.15;;;14.50;99.90;;;;;;5062637;28;20020;-82
2023/06/08 04:54:13;;;;;;;9.30;5.88;;;14.60;99.90;;;;;;5057939;28;20036;-82
2023/06/08 04:56:41;;;;;;;8.27;5.80;;;14.60;99.80;;;;;;5055859;28;20028;-80
2023/06/08 04:59:09;;;;;;;9.13;5.38;;;14.70;99.90;;;;;;5070360;28;20424;-80
2023/06/08 05:01:35;;;;;;;8.43;5.05;;;14.60;99.90;;;;;;5068505;28;20026;-78
2023/06/08 05:04:02;;;;;;;9.63;5.13;;;14.60;99.90;;;;;;5070135;28;20020;-77
2023/06/08 05:06:28;;;;;;;8.13;5.38;;;14.60;99.90;;;;;;5070886;28;20035;-79
2023/06/08 05:08:53;;;;;;;8.50;4.97;;;14.60;99.90;;;;;;5056168;28;20032;-82
2023/06/08 05:11:19;;;;;;;10.02;5.43;;;14.60;99.90;;;;;;5058637;28;20016;-81
2023/06/08 05:13:44;;;;;;;6.88;5.22;;;14.60;99.90;;;;;;5070536;28;20473;-82
2023/06/08 05:16:10;;;;;;;9.68;6.35;;;14.60;99.90;;;;;;5060460;28;20032;-83
2023/06/08 05:18:36;;;;;;;10.02;6.03;;;14.60;99.90;;;;;;5070694;28;20039;-83
2023/06/08 05:21:02;;;;;;;7.65;5.65;;;14.60;99.90;;;;;;5055551;28;20423;-82
2023/06/08 05:23:28;;;;;;;9.02;6.93;;;14.60;99.90;;;;;;5072650;28;20028;-80
2023/06/08 05:25:53;;;;;;;11.13;6.88;;;14.60;99.90;;;;;;5061225;28;20429;-83
2023/06/08 05:28:19;;;;;;;10.90;6.00;;;14.60;99.90;;;;;;5071748;28;20123;-81
2023/06/08 05:30:45;;;;;;;7.43;5.50;;;14.60;99.90;;;;;;5064961;28;20088;-82
2023/06/08 05:33:10;;;;;;;8.57;5.88;;;14.80;99.90;;;;;;5070785;28;20077;-82
2023/06/08 05:35:36;;;;;;;9.63;5.80;;;14.80;99.90;;;;;;5055588;28;20043;-82
2023/06/08 05:38:02;;;;;;;7.95;5.43;;;14.90;99.90;;;;;;5073407;28;21273;-82
2023/06/08 05:40:27;;;;;;;7.97;5.32;;;14.90;99.90;;;;;;5064757;28;20105;-81
2023/06/08 05:42:53;;;;;;;10.70;5.72;;;15.00;99.90;;;;;;5070288;28;20081;-81
2023/06/08 05:45:18;;;;;;;7.68;5.18;;;15.00;99.90;;;;;;5056105;28;20016;-82
2023/06/08 05:47:44;;;;;;;7.97;5.22;;;15.10;99.90;;;;;;5071529;28;20040;-83
2023/06/08 05:50:10;;;;;;;9.88;5.18;;;15.10;99.80;;;;;;5056396;28;20035;-81
2023/06/08 05:52:35;;;;;;;8.15;4.97;;;15.20;99.90;;;;;;5073901;28;20035;-82
2023/06/08 05:55:01;;;;;;;8.95;5.70;;;15.20;99.90;;;;;;5069970;28;20030;-81
2023/06/08 05:57:27;;;;;;;9.32;6.07;;;15.20;99.80;;;;;;5060516;28;20032;-81
2023/06/08 05:59:53;;;;;;;6.07;5.28;;;15.20;99.90;;;;;;5055415;28;20147;-81
2023/06/08 06:02:18;;;;;;;9.13;5.43;;;15.20;99.90;;;;;;5072461;28;20136;-81
2023/06/08 06:04:44;;;;;;;7.95;5.38;;;15.30;99.80;;;;;;5074707;28;20097;-82
2023/06/08 06:07:10;;;;;;;8.25;4.90;;;15.30;99.80;;;;;;5061584;28;20504;-82
2023/06/08 06:09:35;;;;;;;6.68;5.00;;;15.40;99.70;;;;;;5068622;28;20028;-82
2023/06/08 06:12:02;;;;;;;7.80;5.30;;;15.40;99.70;;;;;;5062733;28;20382;-81
2023/06/08 06:14:35;;;;;;;7.97;4.85;;;15.50;99.70;;;;;;5063183;28;20020;-83
2023/06/08 06:17:01;;;;;;;6.88;5.18;;;15.50;99.60;;;;;;5075173;28;20444;-82
2023/06/08 06:19:26;;;;;;;8.43;5.30;;;15.60;99.60;;;;;;5060762;28;20517;-82
2023/06/08 06:21:52;;;;;;;7.88;5.18;;;15.70;99.60;;;;;;5076450;28;21463;-82
2023/06/08 06:24:18;;;;;;;7.28;5.57;;;15.70;99.50;;;;;;5076230;28;20537;-84
2023/06/08 06:26:44;;;;;;;9.05;5.82;;;15.70;99.60;;;;;;5075836;28;20031;-84
2023/06/08 06:29:10;;;;;;;8.32;5.63;;;15.70;99.60;;;;;;5075567;28;20024;-84
2023/06/08 06:31:36;;;;;;;7.10;4.60;;;15.70;99.60;;;;;;5064165;28;20495;-82
2023/06/08 06:34:02;;;;;;;8.95;5.75;;;15.80;99.60;;;;;;5063932;28;20123;-80
2023/06/08 06:36:27;;;;;;;8.57;5.63;;;15.90;99.60;;;;;;5075310;28;20032;-83
2023/06/08 06:38:54;;;;;;;10.38;6.07;;;15.90;99.60;;;;;;5074589;28;20051;-82
2023/06/08 06:41:20;;;;;;;7.03;4.60;;;16.00;99.60;;;;;;5064417;28;20174;-82
2023/06/08 06:43:46;;;;;;;7.07;4.95;;;16.00;99.60;;;;;;5073990;28;20020;-82
2023/06/08 06:46:12;;;;;;;6.57;4.70;;;16.10;99.60;;;;;;5075958;28;20884;-82
2023/06/08 06:48:38;;;;;;;7.45;4.68;;;16.20;99.50;;;;;;5059087;28;20073;-82
2023/06/08 06:51:03;;;;;;;6.93;4.10;;;16.30;99.50;;;;;;5075016;28;20032;-81
2023/06/08 06:53:29;;;;;;;7.35;4.35;;;16.30;99.40;;;;;;5057866;28;20031;-81
2023/06/08 06:55:55;;;;;;;6.30;4.75;;;16.40;99.40;;;;;;5064445;28;20123;-81
2023/06/08 06:58:22;;;;;;;7.28;4.50;;;16.40;99.40;;;;;;5074831;28;20471;-84
2023/06/08 07:00:49;;;;;;;6.88;4.57;;;16.50;99.40;;;;;;5063003;28;20047;-83
2023/06/08 07:03:16;;;;;;;7.55;4.30;;;16.50;99.40;;;;;;5074613;28;20077;-84
2023/06/08 07:05:41;;;;;;;6.88;4.38;;;16.50;99.40;;;;;;5064767;28;20029;-83
2023/06/08 07:08:07;;;;;;;6.68;4.22;;;16.60;99.60;;;;;;5059441;28;20032;-82
2023/06/08 07:10:32;;;;;;;8.10;5.20;;;16.60;99.30;;;;;;5066022;28;20584;-83
2023/06/08 07:12:58;;;;;;;6.45;4.40;;;16.60;99.30;;;;;;5055936;28;20024;-83
2023/06/08 07:15:24;;;;;;;9.70;4.90;;;16.60;99.20;;;;;;5056007;28;20028;-83
2023/06/08 07:17:50;;;;;;;8.98;4.70;;;16.70;99.50;;;;;;5057559;28;20078;-82
2023/06/08 07:20:15;;;;;;;8.40;4.55;;;16.70;99.20;;;;;;5074829;28;20063;-83
2023/06/08 07:22:41;;;;;;;10.15;5.15;;;16.80;99.10;;;;;;5074578;28;20083;-82
2023/06/08 07:25:07;;;;;;;6.70;4.50;;;16.80;99.00;;;;;;5062942;28;20028;-82
2023/06/08 07:27:33;;;;;;;7.78;4.57;;;16.80;99.00;;;;;;5072685;28;20029;-81
2023/06/08 07:29:58;;;;;;;6.72;4.13;;;16.90;99.00;;;;;;5063572;28;20120;-82
2023/06/08 07:32:26;;;;;;;8.10;4.90;;;16.90;99.00;;;;;;5056694;28;20024;-83
2023/06/08 07:34:51;;;;;;;7.63;4.40;;;17.00;98.90;;;;;;5058411;28;20024;-83
2023/06/08 07:37:17;;;;;;;9.65;4.97;;;17.20;98.90;;;;;;5074811;28;20016;-82
2023/06/08 07:39:42;;;;;;;6.95;4.65;;;17.30;98.80;;;;;;5057341;28;20028;-82
2023/06/08 07:42:08;;;;;;;8.07;5.00;;;17.40;98.70;;;;;;5062599;28;20161;-82
2023/06/08 07:44:34;;;;;;;9.95;4.70;;;17.40;98.60;;;;;;5057750;28;20039;-81
2023/06/08 07:47:00;;;;;;;8.60;4.90;;;17.40;98.60;;;;;;5062729;28;20024;-81
2023/06/08 07:49:28;;;;;;;7.03;4.47;;;17.40;98.60;;;;;;5073317;28;20016;-82
2023/06/08 07:51:54;;;;;;;6.55;4.00;;;17.50;98.60;;;;;;5058611;28;20020;-81
2023/06/08 07:54:19;;;;;;;6.00;4.32;;;17.50;98.60;;;;;;5057147;28;20043;-82
2023/06/08 07:56:48;;;;;;;8.00;4.13;;;17.60;98.50;;;;;;5070026;28;20047;-81
2023/06/08 07:59:14;;;;;;;6.30;4.10;;;17.80;98.40;;;;;;5071467;28;20048;-80
2023/06/08 08:01:42;;;;;;;6.22;3.80;;;17.90;98.30;;;;;;5071522;28;20031;-78
2023/06/08 08:04:07;;;;;;;7.72;4.60;;;18.00;98.30;;;;;;5058486;28;20109;-78
2023/06/08 08:06:33;;;;;;;7.57;4.13;;;18.10;98.30;;;;;;5058653;28;20473;-79
2023/06/08 08:08:58;;;;;;;7.22;4.82;;;18.10;98.20;;;;;;5072680;28;22384;-81
2023/06/08 08:11:25;;;;;;;8.20;5.35;;;18.20;98.10;;;;;;5072571;28;20616;-80
2023/06/08 08:13:50;;;;;;;8.38;4.90;;;18.10;98.10;;;;;;5062641;28;20148;-81
2023/06/08 08:16:16;;;;;;;7.72;4.63;;;18.20;98.10;;;;;;5058172;28;20012;-80
2023/06/08 08:18:42;;;;;;;8.52;4.82;;;18.20;98.20;;;;;;5074281;28;20050;-80
2023/06/08 08:21:07;;;;;;;8.38;4.97;;;18.30;98.10;;;;;;5054514;28;20020;-80
2023/06/08 08:23:33;;;;;;;7.78;4.38;;;18.40;98.00;;;;;;5062712;28;20040;-81
2023/06/08 08:25:58;;;;;;;7.53;4.53;;;18.50;98.00;;;;;;5060635;28;20092;-81
2023/06/08 08:28:24;;;;;;;8.00;4.70;;;18.60;98.00;;;;;;5072971;28;20037;-80
2023/06/08 08:30:50;;;;;;;8.45;4.15;;;18.70;97.80;;;;;;5073489;28;21321;-80
2023/06/08 08:33:15;;;;;;;6.45;4.10;;;18.80;97.70;;;;;;5074536;28;20024;-81
2023/06/08 08:35:41;;;;;;;7.38;4.68;;;18.80;97.60;;;;;;5071743;28;20395;-80
2023/06/08 08:38:06;;;;;;;8.23;4.07;;;18.80;97.50;;;;;;5058173;28;20035;-81
2023/06/08 08:40:32;;;;;;;7.47;4.25;;;18.80;97.50;;;;;;5057674;28;20036;-82
2023/06/08 08:43:19;;;;;;;7.13;4.15;;;18.80;97.50;;;;;;5061636;28;20028;-80
2023/06/08 08:45:45;;;;;;;7.47;4.45;;;18.90;97.50;;;;;;5072571;28;20035;-81
2023/06/08 08:48:14;;;;;;;7.72;4.47;;;19.00;97.50;;;;;;5073608;28;20024;-81
2023/06/08 08:50:40;;;;;;;6.82;4.43;;;19.00;97.40;;;;;;5061653;28;20063;-82
2023/06/08 08:53:09;;;;;;;8.38;4.10;;;19.00;97.40;;;;;;5065045;28;20043;-82
2023/06/08 08:55:36;;;;;;;7.13;4.07;;;19.00;97.30;;;;;;5072347;28;20057;-81
2023/06/08 08:58:03;;;;;;;9.02;4.75;;;19.10;97.30;;;;;;5072233;28;20781;-81
2023/06/08 09:00:32;;;;;;;6.38;3.70;;;19.10;97.20;;;;;;5073875;28;20036;-82
2023/06/08 09:02:58;;;;;;;7.20;4.78;;;19.20;97.10;;;;;;5063658;28;20836;-85
2023/06/08 09:05:24;;;;;;;6.22;4.28;;;19.40;97.10;;;;;;5064245;28;20024;-83
2023/06/08 09:07:54;;;;;;;8.98;4.00;;;19.50;97.00;;;;;;5056547;28;20024;-85
2023/06/08 09:10:22;;;;;;;7.97;4.50;;;19.70;96.90;;;;;;5061265;28;20028;-82
2023/06/08 09:12:49;;;;;;;11.88;4.88;;;19.80;96.70;;;;;;5072410;28;20131;-83
2023/06/08 09:15:32;;;;;;;7.60;4.28;;;19.80;96.60;;;;;;5060029;28;20473;-82
2023/06/08 09:18:02;;;;;;;7.63;4.32;;;19.90;96.60;;;;;;5074346;28;20050;-82
2023/06/08 09:20:32;;;;;;;6.47;4.22;;;19.90;96.60;;;;;;5071997;28;20450;-82
2023/06/08 09:23:28;;;;;;;6.47;3.92;;;20.00;96.50;;;;;;5072383;28;20047;-82
2023/06/08 09:25:54;;;;;;;8.13;4.30;;;20.00;96.50;;;;;;5054265;28;20049;-82
2023/06/08 09:28:25;;;;;;;6.75;3.90;;;20.00;96.40;;;;;;5064102;28;20825;-82
2023/06/08 09:30:51;;;;;;;5.18;3.50;;;20.10;96.50;;;;;;5073472;28;20051;-81
2023/06/08 09:33:21;;;;;;;9.85;4.78;;;20.20;96.40;;;;;;5060590;28;20044;-81
2023/06/08 09:36:02;;;;;;;6.30;3.75;;;20.80;96.30;;;;;;5056790;28;21006;-82
2023/06/08 09:38:29;;;;;;;6.18;3.45;;;21.90;95.90;;;;;;5077327;28;20039;-82
2023/06/08 09:41:22;;;;;;;6.38;4.03;;;23.20;95.20;;;;;;5076547;28;20039;-83
2023/06/08 09:43:50;;;;;;;6.18;3.10;;;24.30;94.30;;;;;;5075841;28;20031;-82
2023/06/08 09:46:38;;;;;;;6.70;3.75;;;24.90;93.90;;;;;;5078948;28;20112;-82
2023/06/08 09:49:06;;;;;;;6.47;3.58;;;25.50;93.00;;;;;;5075773;28;20083;-83
2023/06/08 09:51:36;;;;;;;6.72;3.20;;;25.70;92.80;;;;;;5059565;28;20549;-83
2023/06/08 09:54:02;;;;;;;5.25;2.90;;;26.10;92.70;;;;;;5066470;28;20433;-82
2023/06/08 09:56:28;;;;;;;6.78;3.85;;;26.50;92.60;;;;;;5065969;28;20058;-83
2023/06/08 09:59:16;;;;;;;5.20;3.17;;;27.00;92.00;;;;;;5064406;28;20119;-81
2023/06/08 10:02:02;;;;;;;5.68;3.30;;;27.20;91.50;;;;;;5076880;28;20024;-81
2023/06/08 10:04:37;;;;;;;5.45;3.03;;;27.40;91.10;;;;;;5075269;28;20128;-82
2023/06/08 10:07:09;;;;;;;5.55;2.80;;;27.60;90.80;;;;;;5075323;28;20024;-82
2023/06/08 10:09:36;;;;;;;7.32;3.30;;;27.90;90.50;;;;;;5074884;28;20055;-81
2023/06/08 10:12:02;;;;;;;4.47;2.72;;;27.90;90.30;;;;;;5073766;28;20028;-82
2023/06/08 10:14:28;;;;;;;5.03;2.72;;;28.00;90.20;;;;;;5074200;28;20024;-82
2023/06/08 10:16:56;;;;;;;5.32;2.90;;;27.70;90.00;;;;;;5056385;28;20390;-81
2023/06/08 10:19:23;;;;;;;6.47;2.47;;;27.60;90.00;;;;;;5055161;28;20044;-82
2023/06/08 10:21:52;;;;;;;5.40;2.90;;;28.10;89.80;;;;;;5074371;28;20016;-81
2023/06/08 10:24:19;;;;;;;4.85;2.90;;;28.60;89.10;;;;;;5073662;28;20044;-82
2023/06/08 10:26:45;;;;;;;6.90;3.13;;;28.90;88.10;;;;;;5071798;28;20028;-82
2023/06/08 10:29:11;;;;;;;5.25;3.03;;;29.20;87.50;;;;;;5057758;28;20055;-83
2023/06/08 10:31:41;;;;;;;9.27;2.97;;;29.70;87.10;;;;;;5074229;28;20028;-83
2023/06/08 10:34:10;;;;;;;5.20;2.55;;;30.20;86.50;;;;;;5058280;28;20059;-84
2023/06/08 10:36:39;;;;;;;5.28;2.78;;;30.40;86.00;;;;;;5075045;28;20480;-84
2023/06/08 10:39:13;;;;;;;6.32;2.92;;;30.10;85.90;;;;;;5074871;28;20080;-83
2023/06/08 10:41:52;;;;;;;6.50;2.75;;;29.90;85.70;;;;;;5061824;28;20021;-82
2023/06/08 10:44:32;;;;;;;5.32;2.90;;;30.20;85.80;;;;;;5063263;28;20111;-83
2023/06/08 10:47:06;;;;;;;6.03;2.85;;;30.70;85.20;;;;;;5056094;28;20028;-83
2023/06/08 10:49:39;;;;;;;4.57;2.70;;;31.00;84.20;;;;;;5073334;28;20486;-84
2023/06/08 10:52:07;;;;;;;6.35;3.20;;;31.20;84.60;;;;;;5058229;28;20085;-82
2023/06/08 10:54:59;;;;;;;7.82;2.80;;;31.20;82.60;;;;;;5064422;28;20481;-82
2023/06/08 10:57:38;;;;;;;6.63;3.53;;;31.20;82.30;;;;;;5059225;28;20036;-82
2023/06/08 11:00:23;;;;;;;4.60;2.78;;;31.20;82.30;;;;;;5075535;28;20732;-81
2023/06/08 11:02:49;;;;;;;5.20;3.10;;;31.50;82.10;;;;;;5059314;28;20544;-83
2023/06/08 11:05:16;;;;;;;5.28;2.38;;;31.60;81.70;;;;;;5074266;28;20046;-83
2023/06/08 11:07:42;;;;;;;4.85;2.65;;;31.80;81.70;;;;;;5074802;28;20434;-84
2023/06/08 11:10:08;;;;;;;4.20;2.63;;;32.10;81.20;;;;;;5063946;28;20137;-83
2023/06/08 11:12:34;;;;;;;4.30;2.53;;;32.10;80.70;;;;;;5059902;28;20123;-83
2023/06/08 11:15:02;;;;;;;2.83;2.15;;;32.30;80.00;;;;;;5074866;28;20151;-82
2023/06/08 11:17:27;;;;;;;3.67;2.22;;;32.40;80.00;;;;;;5057521;28;20058;-82
2023/06/08 11:19:53;;;;;;;3.63;2.00;;;32.60;79.60;;;;;;5073433;28;20024;-82
2023/06/08 11:22:21;;;;;;;5.03;2.63;;;32.80;79.20;;;;;;5059226;28;20041;-82
2023/06/08 11:24:47;;;;;;;5.13;2.40;;;32.80;78.20;;;;;;5066849;28;20028;-82
2023/06/08 11:27:20;;;;;;;4.40;2.28;;;32.70;78.20;;;;;;5059229;28;20028;-82
2023/06/08 11:29:46;;;;;;;4.57;2.45;;;33.00;78.10;;;;;;5074141;28;20067;-82
2023/06/08 11:32:14;;;;;;;4.65;2.40;;;33.10;77.50;;;;;;5058140;28;20123;-81
2023/06/08 11:34:45;;;;;;;3.70;2.47;;;33.20;77.20;;;;;;5059209;28;20044;-82
2023/06/08 11:37:17;;;;;;;4.57;2.40;;;32.90;76.30;;;;;;5073782;28;20538;-81
2023/06/08 11:39:47;;;;;;;4.57;2.60;;;32.70;76.20;;;;;;5074162;28;20031;-82
2023/06/08 11:42:14;;;;;;;8.00;2.63;;;32.80;76.10;;;;;;5073911;28;20028;-81
2023/06/08 11:44:39;;;;;;;3.20;2.10;;;32.90;75.40;;;;;;5074531;28;20024;-82
2023/06/08 11:47:08;;;;;;;4.55;2.13;;;32.80;75.50;;;;;;5072724;28;20546;-81
2023/06/08 11:49:53;;;;;;;3.75;2.15;;;33.00;75.40;;;;;;5073376;28;20047;-83
2023/06/08 11:52:22;;;;;;;4.45;2.40;;;33.30;75.10;;;;;;5072950;28;20078;-80
2023/06/08 11:54:55;;;;;;;3.92;2.30;;;33.40;74.80;;;;;;5074221;28;20016;-78
2023/06/08 11:57:21;;;;;;;3.38;2.03;;;33.40;74.70;;;;;;5062241;28;20035;-82
2023/06/08 11:59:47;;;;;;;4.35;2.10;;;33.40;74.70;;;;;;5071733;28;20680;-81
2023/06/08 12:02:13;;;;;;;3.05;2.00;;;33.30;74.40;;;;;;5059602;28;20385;-82
2023/06/08 12:04:40;;;;;;;3.47;2.20;;;33.60;74.60;;;;;;5062881;28;20027;-80
2023/06/08 12:07:10;;;;;;;4.72;2.63;;;33.70;74.60;;;;;;5072380;28;20417;-82
2023/06/08 12:09:46;;;;;;;5.88;2.30;;;34.00;74.20;;;;;;5063841;28;20495;-81
2023/06/08 12:12:12;;;;;;;3.10;2.20;;;33.90;74.00;;;;;;5060540;28;20977;-82
2023/06/08 12:14:47;;;;;;;3.47;2.10;;;34.00;74.40;;;;;;5063568;28;20112;-81
2023/06/08 12:17:17;;;;;;;6.15;2.65;;;34.30;73.80;;;;;;5073491;28;20042;-84
2023/06/08 12:19:46;;;;;;;3.25;2.10;;;34.20;73.60;;;;;;5073845;28;20050;-81
2023/06/08 12:22:15;;;;;;;3.13;2.30;;;34.30;73.60;;;;;;5057905;28;21151;-82
2023/06/08 12:24:40;;;;;;;3.22;2.15;;;34.30;73.20;;;;;;5072470;28;20024;-81
2023/06/08 12:27:07;;;;;;;4.93;2.05;;;34.30;72.80;;;;;;5073912;28;22360;-81
2023/06/08 12:29:33;;;;;;;3.88;2.13;;;34.40;72.90;;;;;;5056907;28;20040;-82
2023/06/08 12:31:59;;;;;;;2.90;2.33;;;34.70;72.40;;;;;;5072843;28;20024;-82
2023/06/08 12:34:26;;;;;;;4.05;2.30;;;34.80;72.50;;;;;;5058120;28;20029;-82
2023/06/08 12:36:52;;;;;;;5.95;2.40;;;34.80;72.00;;;;;;5057575;28;20025;-82
2023/06/08 12:39:17;;;;;;;3.38;2.10;;;34.70;71.70;;;;;;5057173;28;20039;-83
2023/06/08 12:41:43;;;;;;;2.88;2.13;;;34.60;71.90;;;;;;5073078;28;20023;-81
2023/06/08 12:44:10;;;;;;;3.08;2.10;;;34.60;71.60;;;;;;5072463;28;22380;-81
2023/06/08 12:46:36;;;;;;;3.92;2.20;;;34.70;71.70;;;;;;5056206;28;20367;-82
2023/06/08 12:49:01;;;;;;;2.85;2.00;;;34.80;71.30;;;;;;5061271;28;20031;-83